sensor_id;sensor_type;location;lat;lon;timestamp;pressure;altitude;pressure_sealevel;temperature;humidity
64544;BME280;50936;51.660;5.616;2022-09-20T00:01:21;101895.69;;;11.75;100.00
64544;BME280;50936;51.660;5.616;2022-09-20T00:03:52;101894.91;;;11.73;100.00
64544;BME280;50936;51.660;5.616;2022-09-20T00:06:25;101890.44;;;11.72;100.00
64544;BME280;50936;51.660;5.616;2022-09-20T00:08:56;101884.25;;;11.70;100.00
64544;BME280;50936;51.660;5.616;2022-09-20T00:11:27;101886.16;;;11.68;100.00
64544;BME280;50936;51.660;5.616;2022-09-20T00:13:58;101888.09;;;11.66;100.00
64544;BME280;50936;51.660;5.616;2022-09-20T00:16:29;101888.09;;;11.66;100.00
64544;BME280;50936;51.660;5.616;2022-09-20T00:19:00;101892.66;;;11.65;100.00
64544;BME280;50936;51.660;5.616;2022-09-20T00:21:32;101905.19;;;11.66;100.00
64544;BME280;50936;51.660;5.616;2022-09-20T00:24:01;101899.78;;;11.66;100.00
64544;BME280;50936;51.660;5.616;2022-09-20T00:26:29;101896.13;;;11.67;100.00
64544;BME280;50936;51.660;5.616;2022-09-20T00:28:57;101898.91;;;11.66;100.00
64544;BME280;50936;51.660;5.616;2022-09-20T00:31:24;101897.84;;;11.68;100.00
64544;BME280;50936;51.660;5.616;2022-09-20T00:33:56;101911.31;;;11.70;100.00
64544;BME280;50936;51.660;5.616;2022-09-20T00:36:43;101909.38;;;11.72;100.00
64544;BME280;50936;51.660;5.616;2022-09-20T00:39:13;101911.16;;;11.73;100.00
64544;BME280;50936;51.660;5.616;2022-09-20T00:41:41;101907.66;;;11.71;100.00
64544;BME280;50936;51.660;5.616;2022-09-20T00:53:22;101905.19;;;11.66;100.00
64544;BME280;50936;51.660;5.616;2022-09-20T00:55:58;101911.66;;;11.64;100.00
64544;BME280;50936;51.660;5.616;2022-09-20T00:58:32;101907.41;;;11.60;100.00
64544;BME280;50936;51.660;5.616;2022-09-20T01:01:03;101915.69;;;11.56;100.00
64544;BME280;50936;51.660;5.616;2022-09-20T01:03:34;101915.59;;;11.58;100.00
64544;BME280;50936;51.660;5.616;2022-09-20T01:06:08;101909.22;;;11.59;100.00
64544;BME280;50936;51.660;5.616;2022-09-20T01:08:39;101920.94;;;11.60;100.00
64544;BME280;50936;51.660;5.616;2022-09-20T01:11:11;101915.59;;;11.58;100.00
64544;BME280;50936;51.660;5.616;2022-09-20T01:13:38;101921.97;;;11.57;100.00
64544;BME280;50936;51.660;5.616;2022-09-20T01:16:06;101915.69;;;11.56;100.00
64544;BME280;50936;51.660;5.616;2022-09-20T01:18:36;101919.34;;;11.55;100.00
64544;BME280;50936;51.660;5.616;2022-09-20T01:21:05;101911.41;;;11.52;100.00
64544;BME280;50936;51.660;5.616;2022-09-20T01:23:47;101910.63;;;11.50;100.00
64544;BME280;50936;51.660;5.616;2022-09-20T01:26:36;101906.44;;;11.45;100.00
64544;BME280;50936;51.660;5.616;2022-09-20T01:31:57;101898.91;;;11.34;100.00
64544;BME280;50936;51.660;5.616;2022-09-20T01:34:34;101898.13;;;11.32;100.00
64544;BME280;50936;51.660;5.616;2022-09-20T01:42:43;101907.03;;;11.34;100.00
64544;BME280;50936;51.660;5.616;2022-09-20T01:45:31;101897.16;;;11.33;100.00
64544;BME280;50936;51.660;5.616;2022-09-20T01:48:11;101899.00;;;11.32;100.00
64544;BME280;50936;51.660;5.616;2022-09-20T01:51:38;101900.84;;;11.32;100.00
64544;BME280;50936;51.660;5.616;2022-09-20T01:59:41;101904.50;;;11.31;100.00
64544;BME280;50936;51.660;5.616;2022-09-20T02:08:37;101909.91;;;11.31;100.00
64544;BME280;50936;51.660;5.616;2022-09-20T02:11:15;101904.50;;;11.31;100.00
64544;BME280;50936;51.660;5.616;2022-09-20T02:16:34;101903.78;;;11.27;100.00
64544;BME280;50936;51.660;5.616;2022-09-20T02:41:12;101895.91;;;11.23;100.00
64544;BME280;50936;51.660;5.616;2022-09-20T02:43:37;101885.09;;;11.23;100.00
64544;BME280;50936;51.660;5.616;2022-09-20T02:49:39;101882.41;;;11.23;100.00
64544;BME280;50936;51.660;5.616;2022-09-20T02:55:24;101898.72;;;11.21;100.00
64544;BME280;50936;51.660;5.616;2022-09-20T02:58:25;101898.72;;;11.21;100.00
64544;BME280;50936;51.660;5.616;2022-09-20T03:01:59;101903.25;;;11.21;100.00
64544;BME280;50936;51.660;5.616;2022-09-20T03:05:11;101906.72;;;11.23;100.00
64544;BME280;50936;51.660;5.616;2022-09-20T03:10:46;101897.84;;;11.21;100.00
64544;BME280;50936;51.660;5.616;2022-09-20T03:26:17;101904.03;;;11.23;100.00
64544;BME280;50936;51.660;5.616;2022-09-20T03:31:37;101899.75;;;11.18;100.00
64544;BME280;50936;51.660;5.616;2022-09-20T03:34:24;101896.25;;;11.16;100.00
64544;BME280;50936;51.660;5.616;2022-09-20T03:46:17;101894.34;;;11.18;100.00
64544;BME280;50936;51.660;5.616;2022-09-20T03:51:34;101902.13;;;11.25;100.00
64544;BME280;50936;51.660;5.616;2022-09-20T03:54:30;101903.09;;;11.24;100.00
64544;BME280;50936;51.660;5.616;2022-09-20T03:57:34;101895.91;;;11.23;100.00
64544;BME280;50936;51.660;5.616;2022-09-20T04:00:47;101899.59;;;11.22;100.00
64544;BME280;50936;51.660;5.616;2022-09-20T04:03:56;101901.50;;;11.20;100.00
64544;BME280;50936;51.660;5.616;2022-09-20T04:12:48;101902.47;;;11.18;100.00
64544;BME280;50936;51.660;5.616;2022-09-20T04:21:13;101895.91;;;11.23;100.00
64544;BME280;50936;51.660;5.616;2022-09-20T04:24:01;101897.84;;;11.21;100.00
64544;BME280;50936;51.660;5.616;2022-09-20T04:26:39;101898.03;;;11.17;100.00
64544;BME280;50936;51.660;5.616;2022-09-20T04:32:10;101893.91;;;11.10;100.00
64544;BME280;50936;51.660;5.616;2022-09-20T04:38:01;101895.56;;;11.13;100.00
64544;BME280;50936;51.660;5.616;2022-09-20T04:58:34;101912.56;;;11.15;100.00
64544;BME280;50936;51.660;5.616;2022-09-20T05:04:09;101910.56;;;11.18;100.00
64544;BME280;50936;51.660;5.616;2022-09-20T05:20:41;101912.22;;;11.05;100.00
64544;BME280;50936;51.660;5.616;2022-09-20T05:23:38;101917.00;;;11.00;100.00
64544;BME280;50936;51.660;5.616;2022-09-20T05:29:35;101920.25;;;10.89;100.00
64544;BME280;50936;51.660;5.616;2022-09-20T05:32:44;101924.97;;;10.86;100.00
64544;BME280;50936;51.660;5.616;2022-09-20T05:35:22;101927.03;;;10.81;100.00
64544;BME280;50936;51.660;5.616;2022-09-20T05:41:07;101934.34;;;10.78;100.00
64544;BME280;50936;51.660;5.616;2022-09-20T05:44:01;101939.75;;;10.78;100.00
64544;BME280;50936;51.660;5.616;2022-09-20T05:55:43;101946.81;;;10.98;100.00
64544;BME280;50936;51.660;5.616;2022-09-20T05:58:30;101954.50;;;11.06;100.00
64544;BME280;50936;51.660;5.616;2022-09-20T06:01:25;101961.31;;;11.13;100.00
64544;BME280;50936;51.660;5.616;2022-09-20T06:04:27;101964.50;;;11.22;100.00
64544;BME280;50936;51.660;5.616;2022-09-20T06:07:18;101952.38;;;11.29;100.00
64544;BME280;50936;51.660;5.616;2022-09-20T06:16:02;101954.84;;;11.49;100.00
64544;BME280;50936;51.660;5.616;2022-09-20T06:19:00;101972.75;;;11.52;100.00
64544;BME280;50936;51.660;5.616;2022-09-20T06:21:45;101973.44;;;11.55;100.00
64544;BME280;50936;51.660;5.616;2022-09-20T06:24:30;101966.94;;;11.60;100.00
64544;BME280;50936;51.660;5.616;2022-09-20T06:27:07;101972.06;;;11.64;100.00
64544;BME280;50936;51.660;5.616;2022-09-20T06:29:43;101974.53;;;11.69;100.00
64544;BME280;50936;51.660;5.616;2022-09-20T06:32:18;101970.84;;;11.70;100.00
64544;BME280;50936;51.660;5.616;2022-09-20T06:34:46;101973.38;;;11.73;100.00
64544;BME280;50936;51.660;5.616;2022-09-20T06:40:39;101968.22;;;11.84;100.00
64544;BME280;50936;51.660;5.616;2022-09-20T06:43:30;101967.16;;;11.87;100.00
64544;BME280;50936;51.660;5.616;2022-09-20T06:45:57;101970.78;;;11.87;100.00
64544;BME280;50936;51.660;5.616;2022-09-20T06:48:24;101976.03;;;11.90;100.00
64544;BME280;50936;51.660;5.616;2022-09-20T06:50:51;101969.50;;;11.94;100.00
64544;BME280;50936;51.660;5.616;2022-09-20T06:53:30;101969.31;;;11.98;100.00
64544;BME280;50936;51.660;5.616;2022-09-20T06:55:59;101967.03;;;12.06;100.00
64544;BME280;50936;51.660;5.616;2022-09-20T06:58:27;101969.38;;;12.12;100.00
64544;BME280;50936;51.660;5.616;2022-09-20T07:00:55;101980.06;;;12.15;100.00
64544;BME280;50936;51.660;5.616;2022-09-20T07:03:21;101977.50;;;12.12;100.00
64544;BME280;50936;51.660;5.616;2022-09-20T07:05:48;101976.91;;;12.07;100.00
64544;BME280;50936;51.660;5.616;2022-09-20T07:08:16;101980.84;;;12.01;100.00
64544;BME280;50936;51.660;5.616;2022-09-20T07:10:43;101978.91;;;12.03;100.00
64544;BME280;50936;51.660;5.616;2022-09-20T07:13:10;101984.69;;;12.13;100.00
64544;BME280;50936;51.660;5.616;2022-09-20T07:15:39;101978.97;;;12.33;100.00
64544;BME280;50936;51.660;5.616;2022-09-20T07:18:06;101987.75;;;12.53;100.00
64544;BME280;50936;51.660;5.616;2022-09-20T07:20:33;101988.22;;;12.76;100.00
64544;BME280;50936;51.660;5.616;2022-09-20T07:23:00;101989.22;;;13.03;100.00
64544;BME280;50936;51.660;5.616;2022-09-20T07:25:29;101995.59;;;13.33;100.00
64544;BME280;50936;51.660;5.616;2022-09-20T07:27:57;101994.22;;;13.69;100.00
64544;BME280;50936;51.660;5.616;2022-09-20T07:30:23;101989.94;;;14.20;100.00
64544;BME280;50936;51.660;5.616;2022-09-20T07:32:50;101994.91;;;14.68;100.00
64544;BME280;50936;51.660;5.616;2022-09-20T07:35:17;101998.16;;;14.60;100.00
64544;BME280;50936;51.660;5.616;2022-09-20T07:37:44;102001.53;;;14.37;100.00
64544;BME280;50936;51.660;5.616;2022-09-20T07:40:12;102010.13;;;14.16;100.00
64544;BME280;50936;51.660;5.616;2022-09-20T07:42:40;102008.81;;;13.95;100.00
64544;BME280;50936;51.660;5.616;2022-09-20T07:45:07;102006.22;;;13.79;100.00
64544;BME280;50936;51.660;5.616;2022-09-20T07:47:34;102009.84;;;13.65;100.00
64544;BME280;50936;51.660;5.616;2022-09-20T07:50:02;102009.75;;;13.52;100.00
64544;BME280;50936;51.660;5.616;2022-09-20T07:52:30;102004.13;;;13.41;100.00
64544;BME280;50936;51.660;5.616;2022-09-20T07:54:57;102004.59;;;13.33;100.00
64544;BME280;50936;51.660;5.616;2022-09-20T07:57:23;102011.97;;;13.31;100.00
64544;BME280;50936;51.660;5.616;2022-09-20T07:59:50;102010.19;;;13.30;100.00
64544;BME280;50936;51.660;5.616;2022-09-20T08:02:17;102009.31;;;13.29;100.00
64544;BME280;50936;51.660;5.616;2022-09-20T08:04:44;102008.06;;;13.35;100.00
64544;BME280;50936;51.660;5.616;2022-09-20T08:07:15;102015.75;;;13.43;100.00
64544;BME280;50936;51.660;5.616;2022-09-20T08:09:42;102008.09;;;13.50;100.00
64544;BME280;50936;51.660;5.616;2022-09-20T08:12:09;102012.16;;;13.57;100.00
64544;BME280;50936;51.660;5.616;2022-09-20T08:14:56;102011.56;;;13.66;100.00
64544;BME280;50936;51.660;5.616;2022-09-20T08:17:23;102015.13;;;13.81;100.00
64544;BME280;50936;51.660;5.616;2022-09-20T08:19:50;102005.91;;;13.98;100.00
64544;BME280;50936;51.660;5.616;2022-09-20T08:22:18;102016.63;;;14.14;100.00
64544;BME280;50936;51.660;5.616;2022-09-20T08:24:45;102011.06;;;14.30;99.26
64544;BME280;50936;51.660;5.616;2022-09-20T08:27:12;102010.25;;;14.42;97.80
64544;BME280;50936;51.660;5.616;2022-09-20T08:29:39;102010.50;;;14.52;96.16
64544;BME280;50936;51.660;5.616;2022-09-20T08:32:06;102015.22;;;14.62;97.02
64544;BME280;50936;51.660;5.616;2022-09-20T08:34:33;102015.03;;;14.66;96.86
64544;BME280;50936;51.660;5.616;2022-09-20T08:36:59;102018.50;;;14.68;94.76
64544;BME280;50936;51.660;5.616;2022-09-20T08:39:26;102023.38;;;14.62;94.11
64544;BME280;50936;51.660;5.616;2022-09-20T08:42:26;102026.91;;;14.50;94.54
64544;BME280;50936;51.660;5.616;2022-09-20T08:45:05;102031.41;;;14.37;95.80
64544;BME280;50936;51.660;5.616;2022-09-20T08:48:04;102037.47;;;14.28;95.92
64544;BME280;50936;51.660;5.616;2022-09-20T08:50:35;102034.94;;;14.24;96.52
64544;BME280;50936;51.660;5.616;2022-09-20T08:53:03;102041.13;;;14.27;94.67
64544;BME280;50936;51.660;5.616;2022-09-20T08:55:30;102030.84;;;14.32;88.78
64544;BME280;50936;51.660;5.616;2022-09-20T08:58:03;102035.06;;;14.50;87.82
64544;BME280;50936;51.660;5.616;2022-09-20T09:00:35;102040.84;;;14.73;87.70
64544;BME280;50936;51.660;5.616;2022-09-20T09:03:06;102041.09;;;14.95;86.99
64544;BME280;50936;51.660;5.616;2022-09-20T09:08:14;102037.44;;;15.35;84.86
64544;BME280;50936;51.660;5.616;2022-09-20T09:10:46;102034.19;;;15.43;85.36
64544;BME280;50936;51.660;5.616;2022-09-20T09:13:24;102034.19;;;15.43;78.37
64544;BME280;50936;51.660;5.616;2022-09-20T09:16:11;102041.03;;;15.35;79.95
64544;BME280;50936;51.660;5.616;2022-09-20T09:18:45;102038.31;;;15.23;80.13
64544;BME280;50936;51.660;5.616;2022-09-20T09:21:23;102044.50;;;15.12;81.89
64544;BME280;50936;51.660;5.616;2022-09-20T09:26:39;102048.50;;;14.93;85.37
64544;BME280;50936;51.660;5.616;2022-09-20T09:29:15;102050.44;;;14.91;86.50
64544;BME280;50936;51.660;5.616;2022-09-20T09:31:51;102058.91;;;14.87;84.66
64544;BME280;50936;51.660;5.616;2022-09-20T09:34:30;102056.72;;;14.79;86.65
64544;BME280;50936;51.660;5.616;2022-09-20T09:37:04;102059.06;;;14.71;86.84
64544;BME280;50936;51.660;5.616;2022-09-20T09:39:33;102060.16;;;14.68;88.38
64544;BME280;50936;51.660;5.616;2022-09-20T09:42:20;102055.75;;;14.80;90.16
64544;BME280;50936;51.660;5.616;2022-09-20T09:44:51;102064.81;;;14.93;90.42
64544;BME280;50936;51.660;5.616;2022-09-20T09:47:25;102060.47;;;15.04;88.52
64544;BME280;50936;51.660;5.616;2022-09-20T09:49:58;102057.66;;;15.05;87.63
64544;BME280;50936;51.660;5.616;2022-09-20T09:52:31;102062.03;;;15.08;87.93
64544;BME280;50936;51.660;5.616;2022-09-20T09:55:01;102059.81;;;15.13;88.24
64544;BME280;50936;51.660;5.616;2022-09-20T10:00:40;102064.66;;;15.35;84.52
64544;BME280;50936;51.660;5.616;2022-09-20T10:03:31;102069.88;;;15.51;75.89
64544;BME280;50936;51.660;5.616;2022-09-20T10:06:13;102066.19;;;15.52;75.53
64544;BME280;50936;51.660;5.616;2022-09-20T10:08:58;102067.72;;;15.56;78.55
64544;BME280;50936;51.660;5.616;2022-09-20T10:14:55;102062.28;;;15.82;78.25
64544;BME280;50936;51.660;5.616;2022-09-20T10:20:35;102063.50;;;16.14;76.86
64544;BME280;50936;51.660;5.616;2022-09-20T10:23:43;102058.44;;;16.34;73.45
64544;BME280;50936;51.660;5.616;2022-09-20T10:26:37;102064.19;;;16.42;73.42
64544;BME280;50936;51.660;5.616;2022-09-20T10:38:26;102045.19;;;16.65;73.32
64544;BME280;50936;51.660;5.616;2022-09-20T10:44:46;102055.09;;;16.54;70.80
64544;BME280;50936;51.660;5.616;2022-09-20T10:47:48;102055.16;;;16.42;69.85
64544;BME280;50936;51.660;5.616;2022-09-20T10:50:32;102060.19;;;16.35;71.15
64544;BME280;50936;51.660;5.616;2022-09-20T11:07:18;102072.94;;;16.59;72.66
64544;BME280;50936;51.660;5.616;2022-09-20T11:09:59;102066.06;;;16.90;71.04
64544;BME280;50936;51.660;5.616;2022-09-20T11:12:41;102061.94;;;17.20;70.15
64544;BME280;50936;51.660;5.616;2022-09-20T11:15:34;102066.34;;;17.45;68.35
64544;BME280;50936;51.660;5.616;2022-09-20T11:18:31;102066.09;;;17.59;66.26
64544;BME280;50936;51.660;5.616;2022-09-20T11:21:12;102065.09;;;17.49;67.16
64544;BME280;50936;51.660;5.616;2022-09-20T11:23:55;102076.00;;;17.38;68.77
64544;BME280;50936;51.660;5.616;2022-09-20T11:26:38;102081.44;;;17.26;64.89
64544;BME280;50936;51.660;5.616;2022-09-20T11:32:14;102088.03;;;17.00;64.49
64544;BME280;50936;51.660;5.616;2022-09-20T11:34:54;102083.69;;;16.97;64.98
64544;BME280;50936;51.660;5.616;2022-09-20T11:37:37;102084.06;;;16.92;65.64
64544;BME280;50936;51.660;5.616;2022-09-20T11:42:45;102082.59;;;17.00;66.07
64544;BME280;50936;51.660;5.616;2022-09-20T11:45:13;102083.38;;;17.02;66.40
64544;BME280;50936;51.660;5.616;2022-09-20T11:47:43;102088.34;;;17.08;66.75
64544;BME280;50936;51.660;5.616;2022-09-20T11:56:01;102087.63;;;17.17;65.17
64544;BME280;50936;51.660;5.616;2022-09-20T11:58:50;102086.16;;;17.24;63.22
64544;BME280;50936;51.660;5.616;2022-09-20T12:01:35;102082.94;;;17.42;62.93
64544;BME280;50936;51.660;5.616;2022-09-20T12:04:18;102075.31;;;17.69;60.57
64544;BME280;50936;51.660;5.616;2022-09-20T12:09:56;102080.03;;;17.79;57.21
64544;BME280;50936;51.660;5.616;2022-09-20T12:12:42;102069.50;;;17.85;56.99
64544;BME280;50936;51.660;5.616;2022-09-20T12:15:38;102076.59;;;17.99;59.29
64544;BME280;50936;51.660;5.616;2022-09-20T12:18:26;102071.94;;;18.22;56.34
64544;BME280;50936;51.660;5.616;2022-09-20T12:20:58;102070.22;;;18.21;52.30
64544;BME280;50936;51.660;5.616;2022-09-20T12:28:48;102066.72;;;18.31;53.70
64544;BME280;50936;51.660;5.616;2022-09-20T12:36:33;102065.13;;;18.28;53.71
64544;BME280;50936;51.660;5.616;2022-09-20T12:47:20;102052.09;;;17.75;54.95
64544;BME280;50936;51.660;5.616;2022-09-20T12:49:51;102053.47;;;17.92;53.71
64544;BME280;50936;51.660;5.616;2022-09-20T12:58:37;102041.66;;;18.58;53.80
64544;BME280;50936;51.660;5.616;2022-09-20T13:03:49;102033.81;;;18.97;50.60
64544;BME280;50936;51.660;5.616;2022-09-20T13:09:04;102041.09;;;19.08;51.89
64544;BME280;50936;51.660;5.616;2022-09-20T13:14:23;102036.19;;;19.32;49.53
64544;BME280;50936;51.660;5.616;2022-09-20T13:19:53;102041.63;;;19.22;50.47
64544;BME280;50936;51.660;5.616;2022-09-20T13:22:29;102036.88;;;19.24;51.21
64544;BME280;50936;51.660;5.616;2022-09-20T13:25:05;102040.72;;;19.43;50.35
64544;BME280;50936;51.660;5.616;2022-09-20T13:28:00;102033.69;;;19.71;50.21
64544;BME280;50936;51.660;5.616;2022-09-20T13:30:32;102035.03;;;19.77;47.54
64544;BME280;50936;51.660;5.616;2022-09-20T13:33:22;102031.91;;;19.60;51.01
64544;BME280;50936;51.660;5.616;2022-09-20T13:35:54;102030.44;;;19.56;50.16
64544;BME280;50936;51.660;5.616;2022-09-20T13:38:27;102035.72;;;19.48;50.78
64544;BME280;50936;51.660;5.616;2022-09-20T13:41:08;102036.66;;;19.37;50.60
64544;BME280;50936;51.660;5.616;2022-09-20T13:43:47;102030.53;;;19.24;51.09
64544;BME280;50936;51.660;5.616;2022-09-20T13:46:22;102040.16;;;19.18;51.71
64544;BME280;50936;51.660;5.616;2022-09-20T13:49:17;102047.16;;;19.11;50.48
64544;BME280;50936;51.660;5.616;2022-09-20T13:51:50;102040.97;;;19.09;51.60
64544;BME280;50936;51.660;5.616;2022-09-20T13:54:20;102037.97;;;19.12;51.21
64544;BME280;50936;51.660;5.616;2022-09-20T13:56:55;102036.81;;;19.15;52.32
64544;BME280;50936;51.660;5.616;2022-09-20T13:59:32;102039.34;;;19.28;50.87
64544;BME280;50936;51.660;5.616;2022-09-20T14:02:23;102040.56;;;19.35;50.36
64544;BME280;50936;51.660;5.616;2022-09-20T14:04:55;102042.59;;;19.64;48.90
64544;BME280;50936;51.660;5.616;2022-09-20T14:07:27;102037.75;;;20.08;49.43
64544;BME280;50936;51.660;5.616;2022-09-20T14:09:57;102036.59;;;20.20;48.37
64544;BME280;50936;51.660;5.616;2022-09-20T14:12:25;102038.63;;;20.18;47.36
64544;BME280;50936;51.660;5.616;2022-09-20T14:14:54;102029.50;;;20.08;47.99
64544;BME280;50936;51.660;5.616;2022-09-20T14:17:22;102037.09;;;19.94;48.41
64544;BME280;50936;51.660;5.616;2022-09-20T14:19:52;102034.56;;;20.12;47.62
64544;BME280;50936;51.660;5.616;2022-09-20T14:22:24;102043.00;;;20.40;47.72
64544;BME280;50936;51.660;5.616;2022-09-20T14:25:20;102035.78;;;20.49;46.87
64544;BME280;50936;51.660;5.616;2022-09-20T14:28:15;102031.75;;;20.33;46.89
64544;BME280;50936;51.660;5.616;2022-09-20T14:30:45;102029.94;;;20.13;46.25
64544;BME280;50936;51.660;5.616;2022-09-20T14:33:19;102030.63;;;19.95;46.77
64544;BME280;50936;51.660;5.616;2022-09-20T14:35:50;102034.34;;;19.94;48.34
64544;BME280;50936;51.660;5.616;2022-09-20T14:38:22;102029.75;;;19.95;45.78
64544;BME280;50936;51.660;5.616;2022-09-20T14:40:51;102037.22;;;19.83;45.81
64544;BME280;50936;51.660;5.616;2022-09-20T14:43:23;102035.09;;;19.66;46.58
64544;BME280;50936;51.660;5.616;2022-09-20T14:45:56;102033.34;;;19.65;48.40
64544;BME280;50936;51.660;5.616;2022-09-20T14:48:35;102040.00;;;19.72;47.02
64544;BME280;50936;51.660;5.616;2022-09-20T14:51:23;102033.94;;;19.68;47.31
64544;BME280;50936;51.660;5.616;2022-09-20T14:56:34;102041.53;;;19.55;48.76
64544;BME280;50936;51.660;5.616;2022-09-20T15:01:40;102038.59;;;19.47;48.78
64544;BME280;50936;51.660;5.616;2022-09-20T15:04:20;102038.41;;;19.38;49.29
64544;BME280;50936;51.660;5.616;2022-09-20T15:06:49;102037.75;;;19.25;50.16
64544;BME280;50936;51.660;5.616;2022-09-20T15:09:19;102039.69;;;19.13;50.24
64544;BME280;50936;51.660;5.616;2022-09-20T15:14:41;102032.59;;;18.90;51.99
64544;BME280;50936;51.660;5.616;2022-09-20T15:17:15;102038.81;;;18.80;52.65
64544;BME280;50936;51.660;5.616;2022-09-20T15:19:45;102034.94;;;18.62;52.76
64544;BME280;50936;51.660;5.616;2022-09-20T15:22:13;102041.44;;;18.50;53.47
64544;BME280;50936;51.660;5.616;2022-09-20T15:24:41;102045.94;;;18.39;54.21
64544;BME280;50936;51.660;5.616;2022-09-20T15:27:10;102041.75;;;18.24;54.67
64544;BME280;50936;51.660;5.616;2022-09-20T15:29:38;102040.06;;;18.12;55.30
64544;BME280;50936;51.660;5.616;2022-09-20T15:32:05;102042.41;;;18.05;56.27
64544;BME280;50936;51.660;5.616;2022-09-20T15:34:32;102040.31;;;17.86;55.77
64544;BME280;50936;51.660;5.616;2022-09-20T15:36:59;102045.25;;;17.69;56.65
64544;BME280;50936;51.660;5.616;2022-09-20T15:39:26;102036.81;;;17.50;56.38
64544;BME280;50936;51.660;5.616;2022-09-20T15:41:53;102036.03;;;17.37;56.81
64544;BME280;50936;51.660;5.616;2022-09-20T15:44:20;102030.06;;;17.20;57.49
64544;BME280;50936;51.660;5.616;2022-09-20T15:46:49;102033.63;;;17.09;57.83
64544;BME280;50936;51.660;5.616;2022-09-20T15:49:16;102041.53;;;17.01;58.51
64544;BME280;50936;51.660;5.616;2022-09-20T15:51:43;102031.34;;;16.92;58.64
64544;BME280;50936;51.660;5.616;2022-09-20T15:54:12;102031.38;;;16.79;59.45
64544;BME280;50936;51.660;5.616;2022-09-20T15:56:40;102037.53;;;16.70;59.81
64544;BME280;50936;51.660;5.616;2022-09-20T15:59:09;102035.19;;;16.65;60.21
64544;BME280;50936;51.660;5.616;2022-09-20T16:01:41;102036.03;;;16.66;60.65
64544;BME280;50936;51.660;5.616;2022-09-20T16:04:15;102038.44;;;16.70;60.73
64544;BME280;50936;51.660;5.616;2022-09-20T16:06:46;102041.53;;;16.77;61.54
64544;BME280;50936;51.660;5.616;2022-09-20T16:09:15;102044.47;;;16.87;61.47
64544;BME280;50936;51.660;5.616;2022-09-20T16:11:43;102039.63;;;16.90;61.23
64544;BME280;50936;51.660;5.616;2022-09-20T16:14:11;102045.34;;;16.87;61.57
64544;BME280;50936;51.660;5.616;2022-09-20T16:16:38;102048.81;;;16.89;61.54
64544;BME280;50936;51.660;5.616;2022-09-20T16:19:08;102044.16;;;17.03;61.73
64544;BME280;50936;51.660;5.616;2022-09-20T16:21:54;102042.59;;;17.23;62.52
64544;BME280;50936;51.660;5.616;2022-09-20T16:24:28;102046.97;;;17.37;61.82
64544;BME280;50936;51.660;5.616;2022-09-20T16:26:58;102052.22;;;17.51;61.33
64544;BME280;50936;51.660;5.616;2022-09-20T16:29:28;102056.66;;;17.63;60.67
64544;BME280;50936;51.660;5.616;2022-09-20T16:31:57;102049.34;;;17.75;59.65
64544;BME280;50936;51.660;5.616;2022-09-20T16:34:27;102057.69;;;17.85;59.47
64544;BME280;50936;51.660;5.616;2022-09-20T16:37:04;102051.59;;;17.93;59.78
64544;BME280;50936;51.660;5.616;2022-09-20T16:39:35;102052.72;;;18.01;58.73
64544;BME280;50936;51.660;5.616;2022-09-20T16:42:04;102057.94;;;17.93;59.15
64544;BME280;50936;51.660;5.616;2022-09-20T16:44:38;102062.63;;;17.80;59.33
64544;BME280;50936;51.660;5.616;2022-09-20T16:47:10;102061.38;;;17.61;59.91
64544;BME280;50936;51.660;5.616;2022-09-20T16:49:39;102053.91;;;17.41;60.35
64544;BME280;50936;51.660;5.616;2022-09-20T16:52:07;102055.38;;;17.22;60.85
64544;BME280;50936;51.660;5.616;2022-09-20T16:54:34;102062.50;;;17.01;60.74
64544;BME280;50936;51.660;5.616;2022-09-20T16:57:01;102060.41;;;16.80;61.84
64544;BME280;50936;51.660;5.616;2022-09-20T16:59:28;102059.22;;;16.60;62.24
64544;BME280;50936;51.660;5.616;2022-09-20T17:01:55;102067.13;;;16.39;63.17
64544;BME280;50936;51.660;5.616;2022-09-20T17:04:22;102066.78;;;16.20;63.71
64544;BME280;50936;51.660;5.616;2022-09-20T17:06:50;102069.66;;;16.05;64.56
64544;BME280;50936;51.660;5.616;2022-09-20T17:09:18;102071.63;;;15.90;65.36
64544;BME280;50936;51.660;5.616;2022-09-20T17:11:46;102069.78;;;15.78;67.01
64544;BME280;50936;51.660;5.616;2022-09-20T17:14:17;102073.81;;;15.59;66.35
64544;BME280;50936;51.660;5.616;2022-09-20T17:16:46;102070.13;;;15.48;66.97
64544;BME280;50936;51.660;5.616;2022-09-20T17:19:16;102068.16;;;15.37;67.97
64544;BME280;50936;51.660;5.616;2022-09-20T17:21:47;102068.91;;;15.26;68.14
64544;BME280;50936;51.660;5.616;2022-09-20T17:24:18;102071.50;;;15.15;68.82
64544;BME280;50936;51.660;5.616;2022-09-20T17:26:46;102078.53;;;15.05;70.00
64544;BME280;50936;51.660;5.616;2022-09-20T17:29:15;102075.69;;;14.93;69.66
64544;BME280;50936;51.660;5.616;2022-09-20T17:31:45;102076.09;;;14.87;69.58
64544;BME280;50936;51.660;5.616;2022-09-20T17:34:20;102079.44;;;14.78;69.59
64544;BME280;50936;51.660;5.616;2022-09-20T17:36:48;102087.16;;;14.71;70.41
64544;BME280;50936;51.660;5.616;2022-09-20T17:39:16;102092.13;;;14.65;70.45
64544;BME280;50936;51.660;5.616;2022-09-20T17:41:48;102095.34;;;14.57;71.24
64544;BME280;50936;51.660;5.616;2022-09-20T17:44:15;102094.84;;;14.50;71.84
64544;BME280;50936;51.660;5.616;2022-09-20T17:46:44;102099.84;;;14.43;73.13
64544;BME280;50936;51.660;5.616;2022-09-20T17:49:18;102104.81;;;14.37;73.44
64544;BME280;50936;51.660;5.616;2022-09-20T17:51:49;102103.44;;;14.30;73.15
64544;BME280;50936;51.660;5.616;2022-09-20T17:54:18;102107.34;;;14.25;73.17
64544;BME280;50936;51.660;5.616;2022-09-20T17:56:47;102110.34;;;14.21;73.24